createdAt,value
2022-08-07T00:00:18.703Z,35.20
2022-08-07T00:02:35.446Z,35.30
2022-08-07T00:02:44.840Z,35.40
2022-08-07T00:03:47.635Z,34.90
2022-08-07T00:04:50.013Z,34.80
2022-08-07T00:05:53.210Z,34.80
2022-08-07T00:06:56.345Z,35.00
2022-08-07T00:08:04.484Z,35.20
2022-08-07T00:09:16.684Z,35.00
2022-08-07T00:10:26.137Z,35.00
2022-08-07T00:11:30.012Z,35.30
2022-08-07T00:12:35.638Z,35.50
2022-08-07T00:13:57.870Z,35.30
2022-08-07T00:15:01.695Z,35.10
2022-08-07T00:16:05.164Z,34.90
2022-08-07T00:17:10.309Z,35.10
2022-08-07T00:18:19.779Z,35.20
2022-08-07T00:20:00.173Z,34.90
2022-08-07T00:20:51.298Z,34.80
2022-08-07T00:21:56.540Z,34.40
2022-08-07T00:23:08.026Z,34.50
2022-08-07T00:24:11.163Z,34.60
2022-08-07T00:25:16.773Z,34.40
2022-08-07T00:26:49.127Z,34.50
2022-08-07T00:27:53.642Z,34.20
2022-08-07T00:28:58.905Z,34.00
2022-08-07T00:30:02.397Z,34.00
2022-08-07T00:31:12.715Z,34.00
2022-08-07T00:32:20.125Z,34.10
2022-08-07T00:33:32.769Z,34.30
2022-08-07T00:34:35.663Z,33.90
2022-08-07T00:35:38.226Z,34.00
2022-08-07T00:36:42.999Z,34.00
2022-08-07T00:37:48.345Z,34.00
2022-08-07T00:38:50.861Z,33.90
2022-08-07T00:39:56.645Z,34.00
2022-08-07T00:40:59.444Z,33.90
2022-08-07T00:42:05.241Z,33.90
2022-08-07T00:43:09.953Z,33.80
2022-08-07T00:44:12.942Z,33.90
2022-08-07T00:45:17.499Z,34.00
2022-08-07T00:46:20.049Z,34.00
2022-08-07T00:48:09.459Z,33.90
2022-08-07T00:48:49.920Z,33.80
2022-08-07T00:50:21.414Z,33.70
2022-08-07T00:51:16.816Z,33.80
2022-08-07T00:52:19.900Z,33.90
2022-08-07T00:53:23.209Z,34.00
2022-08-07T00:54:25.568Z,33.80
2022-08-07T00:56:02.206Z,33.70
2022-08-07T00:56:52.015Z,34.20
2022-08-07T00:57:56.326Z,34.00
2022-08-07T00:58:58.947Z,34.10
2022-08-07T01:00:01.888Z,33.70
2022-08-07T01:01:06.104Z,33.90
2022-08-07T01:02:14.219Z,33.80
2022-08-07T01:03:56.344Z,33.90
2022-08-07T01:04:54.645Z,33.80
2022-08-07T01:06:01.488Z,33.80
2022-08-07T01:07:04.923Z,33.90
2022-08-07T01:08:09.140Z,34.00
2022-08-07T01:09:12.081Z,33.90
2022-08-07T01:10:34.962Z,34.20
2022-08-07T01:12:09.677Z,34.00
2022-08-07T01:13:00.354Z,33.90
2022-08-07T01:14:06.031Z,34.10
2022-08-07T01:15:11.928Z,33.80
2022-08-07T01:16:29.929Z,33.90
2022-08-07T01:17:34.698Z,33.90
2022-08-07T01:18:38.234Z,34.00
2022-08-07T01:19:44.924Z,34.00
2022-08-07T01:21:22.545Z,33.90
2022-08-07T01:22:29.723Z,33.80
2022-08-07T01:23:39.390Z,34.20
2022-08-07T01:24:47.450Z,34.00
2022-08-07T01:25:55.642Z,34.00
2022-08-07T01:27:00.800Z,33.90
2022-08-07T01:28:04.489Z,33.80
2022-08-07T01:29:06.969Z,33.70
2022-08-07T01:30:10.788Z,33.80
2022-08-07T01:31:15.480Z,33.70
2022-08-07T01:32:22.338Z,33.60
2022-08-07T01:33:30.189Z,33.70
2022-08-07T01:34:49.827Z,34.00
2022-08-07T01:35:54.450Z,33.90
2022-08-07T01:37:12.164Z,33.50
2022-08-07T01:38:25.109Z,33.60
2022-08-07T01:39:40.826Z,33.70
2022-08-07T01:40:58.771Z,33.60
2022-08-07T01:42:37.075Z,33.50
2022-08-07T01:43:25.909Z,33.70
2022-08-07T01:44:28.851Z,33.70
2022-08-07T01:45:36.871Z,33.60
2022-08-07T01:46:48.303Z,33.80
2022-08-07T01:48:16.835Z,33.60
2022-08-07T01:49:14.086Z,33.70
2022-08-07T01:50:22.756Z,33.70
2022-08-07T01:52:04.091Z,33.60
2022-08-07T01:52:57.709Z,33.70
2022-08-07T01:54:11.994Z,34.20
2022-08-07T01:55:34.359Z,33.80
2022-08-07T01:56:49.476Z,33.80
2022-08-07T01:58:05.953Z,33.80
2022-08-07T01:59:09.768Z,33.70
2022-08-07T02:00:18.511Z,34.30
2022-08-07T02:02:02.761Z,33.80
2022-08-07T02:03:11.955Z,33.70
2022-08-07T02:04:32.233Z,33.80
2022-08-07T02:06:00.847Z,33.70
2022-08-07T02:07:07.829Z,33.90
2022-08-07T02:08:16.710Z,34.00
2022-08-07T02:09:52.087Z,33.90
2022-08-07T02:10:43.662Z,33.80
2022-08-07T02:12:03.923Z,33.90
2022-08-07T02:13:10.331Z,34.00
2022-08-07T02:14:40.181Z,34.00
2022-08-07T02:15:48.886Z,34.00
2022-08-07T02:16:56.817Z,34.10
2022-08-07T02:18:01.695Z,34.10
2022-08-07T02:20:07.590Z,34.10
2022-08-07T02:20:31.077Z,34.30
2022-08-07T02:21:56.311Z,34.10
2022-08-07T02:23:02.111Z,34.00
2022-08-07T02:24:05.305Z,33.90
2022-08-07T02:25:13.799Z,33.90
2022-08-07T02:26:33.105Z,34.00
2022-08-07T02:27:41.123Z,34.00
2022-08-07T02:28:43.934Z,34.20
2022-08-07T02:29:54.503Z,34.40
2022-08-07T02:31:04.702Z,34.20
2022-08-07T02:32:23.561Z,34.20
2022-08-07T02:33:32.864Z,34.40
2022-08-07T02:34:53.366Z,34.20
2022-08-07T02:36:29.878Z,34.20
2022-08-07T02:37:23.662Z,34.50
2022-08-07T02:38:31.687Z,34.70
2022-08-07T02:39:42.872Z,34.30
2022-08-07T02:40:55.304Z,34.20
2022-08-07T02:41:58.741Z,34.20
2022-08-07T02:43:07.733Z,34.00
2022-08-07T02:44:11.756Z,34.00
2022-08-07T02:45:57.560Z,34.00
2022-08-07T02:46:46.669Z,33.90
2022-08-07T02:47:49.603Z,34.10
2022-08-07T02:48:54.877Z,34.10
2022-08-07T02:49:59.974Z,34.10
2022-08-07T02:51:28.755Z,34.10
2022-08-07T02:52:34.893Z,34.20
2022-08-07T02:53:39.122Z,34.10
2022-08-07T02:54:45.606Z,34.20
2022-08-07T02:56:03.934Z,34.50
2022-08-07T02:57:13.076Z,34.40
2022-08-07T02:58:21.781Z,34.40
2022-08-07T02:59:27.657Z,34.30
2022-08-07T03:00:33.882Z,34.50
2022-08-07T03:01:39.975Z,34.40
2022-08-07T03:02:54.802Z,34.60
2022-08-07T03:03:58.984Z,34.60
2022-08-07T03:05:06.798Z,34.60
2022-08-07T03:06:16.308Z,34.40
2022-08-07T03:07:21.533Z,34.50
2022-08-07T03:08:43.453Z,34.40
2022-08-07T03:09:50.628Z,34.30
2022-08-07T03:10:55.761Z,34.20
2022-08-07T03:12:05.221Z,34.30
2022-08-07T03:13:10.309Z,34.20
2022-08-07T03:14:13.379Z,34.20
2022-08-07T03:15:30.127Z,34.30
2022-08-07T03:16:41.731Z,34.30
2022-08-07T03:17:53.243Z,34.20
2022-08-07T03:18:58.171Z,34.20
2022-08-07T03:20:00.929Z,34.20
2022-08-07T03:21:04.933Z,34.30
2022-08-07T03:22:18.809Z,34.20
2022-08-07T03:23:21.955Z,34.20
2022-08-07T03:24:37.005Z,34.20
2022-08-07T03:25:41.993Z,34.20
2022-08-07T03:26:58.534Z,34.30
2022-08-07T03:28:09.671Z,34.40
2022-08-07T03:29:36.823Z,34.40
2022-08-07T03:30:41.271Z,34.30
2022-08-07T03:31:46.496Z,34.40
2022-08-07T03:32:58.286Z,34.40
2022-08-07T03:34:01.670Z,34.40
2022-08-07T03:35:17.630Z,34.40
2022-08-07T03:36:23.300Z,34.40
2022-08-07T03:37:32.843Z,34.60
2022-08-07T03:38:40.136Z,34.70
2022-08-07T03:40:00.070Z,34.70
2022-08-07T03:41:06.097Z,34.90
2022-08-07T03:42:13.184Z,34.90
2022-08-07T03:43:16.637Z,35.00
2022-08-07T03:44:34.243Z,35.00
2022-08-07T03:45:39.812Z,34.90
2022-08-07T03:47:10.990Z,34.90
2022-08-07T03:48:11.543Z,35.00
2022-08-07T03:49:14.608Z,35.10
2022-08-07T03:50:22.885Z,35.00
2022-08-07T03:51:30.941Z,35.10
2022-08-07T03:52:49.570Z,35.20
2022-08-07T03:54:33.170Z,35.20
2022-08-07T03:55:15.104Z,35.20
2022-08-07T03:56:32.759Z,35.30
2022-08-07T03:58:32.573Z,35.50
2022-08-07T03:59:08.410Z,35.60
2022-08-07T04:00:15.378Z,35.70
2022-08-07T04:01:26.941Z,35.90
2022-08-07T04:02:29.695Z,36.00
2022-08-07T04:03:49.486Z,36.10
2022-08-07T04:04:55.495Z,36.20
2022-08-07T04:06:01.037Z,36.30
2022-08-07T04:07:16.809Z,36.40
2022-08-07T04:08:21.658Z,36.40
2022-08-07T04:09:26.024Z,36.50
2022-08-07T04:10:54.228Z,36.50
2022-08-07T04:12:24.309Z,36.60
2022-08-07T04:14:09.423Z,36.60
2022-08-07T04:14:56.440Z,36.70
2022-08-07T04:15:59.173Z,36.80
2022-08-07T04:17:03.102Z,36.70
2022-08-07T04:18:56.894Z,36.70
2022-08-07T04:19:51.000Z,36.80
2022-08-07T04:20:54.759Z,36.80
2022-08-07T04:22:05.443Z,36.70
2022-08-07T04:23:19.194Z,36.70
2022-08-07T04:24:33.772Z,36.70
2022-08-07T04:25:41.020Z,36.80
2022-08-07T04:26:45.715Z,36.90
2022-08-07T04:28:00.536Z,36.90
2022-08-07T04:29:06.438Z,37.50
2022-08-07T04:30:21.363Z,37.10
2022-08-07T04:32:03.313Z,37.20
2022-08-07T04:33:10.009Z,37.30
2022-08-07T04:34:24.242Z,37.20
2022-08-07T04:35:39.584Z,37.30
2022-08-07T04:36:48.831Z,37.40
2022-08-07T04:38:06.447Z,37.40
2022-08-07T04:39:11.058Z,37.30
2022-08-07T04:40:15.803Z,37.30
2022-08-07T04:41:19.291Z,37.30
2022-08-07T04:42:30.862Z,37.40
2022-08-07T04:44:09.729Z,37.50
2022-08-07T04:45:02.800Z,37.40
2022-08-07T04:46:12.333Z,37.40
2022-08-07T04:48:01.324Z,37.50
2022-08-07T04:48:55.517Z,37.50
2022-08-07T04:50:03.980Z,37.30
2022-08-07T04:51:15.456Z,37.40
2022-08-07T04:52:35.958Z,37.40
2022-08-07T04:54:05.225Z,37.40
2022-08-07T04:58:12.382Z,37.30
2022-08-07T04:58:12.788Z,37.30
2022-08-07T04:58:27.463Z,37.30
2022-08-07T05:00:14.172Z,37.50
2022-08-07T05:01:21.299Z,37.20
2022-08-07T05:02:50.570Z,37.40
2022-08-07T05:04:08.920Z,37.50
2022-08-07T05:05:52.903Z,37.50
2022-08-07T05:06:51.664Z,37.20
2022-08-07T05:08:59.073Z,37.20
2022-08-07T05:10:08.217Z,37.10
2022-08-07T05:11:57.639Z,37.00
2022-08-07T05:14:44.497Z,37.00
2022-08-07T05:14:55.214Z,37.00
2022-08-07T05:15:58.025Z,37.00
2022-08-07T05:17:05.826Z,36.90
2022-08-07T05:18:34.493Z,36.70
2022-08-07T05:19:44.929Z,36.80
2022-08-07T05:20:53.617Z,36.80
2022-08-07T05:22:01.756Z,36.70
2022-08-07T05:23:15.800Z,36.80
2022-08-07T05:24:24.595Z,36.70
2022-08-07T05:25:36.758Z,36.70
2022-08-07T05:26:57.792Z,36.70
2022-08-07T05:28:20.141Z,36.70
2022-08-07T05:29:26.069Z,36.70
2022-08-07T05:30:43.269Z,36.60
2022-08-07T05:31:52.962Z,36.60
2022-08-07T05:33:02.414Z,36.80
2022-08-07T05:34:11.018Z,36.80
2022-08-07T05:35:16.086Z,36.60
2022-08-07T05:36:22.392Z,36.70
2022-08-07T05:37:26.408Z,36.60
2022-08-07T05:39:01.046Z,36.80
2022-08-07T05:40:13.705Z,36.60
2022-08-07T05:41:21.849Z,36.50
2022-08-07T05:42:33.723Z,36.40
2022-08-07T05:43:50.169Z,36.40
2022-08-07T05:45:14.670Z,36.30
2022-08-07T05:46:26.552Z,36.20
2022-08-07T05:47:38.492Z,36.20
2022-08-07T05:48:58.413Z,36.20
2022-08-07T05:50:04.089Z,36.10
2022-08-07T05:51:08.285Z,36.10
2022-08-07T05:52:11.627Z,36.00
2022-08-07T05:54:13.955Z,35.90
2022-08-07T05:54:53.250Z,36.20
2022-08-07T05:56:01.844Z,36.10
2022-08-07T05:57:06.605Z,35.80
2022-08-07T05:58:10.504Z,35.70
2022-08-07T05:59:15.196Z,35.80
2022-08-07T06:00:19.666Z,35.80
2022-08-07T06:01:34.740Z,35.90
2022-08-07T06:02:39.826Z,35.80
2022-08-07T06:03:56.868Z,35.90
2022-08-07T06:05:08.133Z,35.90
2022-08-07T06:06:17.373Z,36.00
2022-08-07T06:07:23.031Z,35.90
2022-08-07T06:08:46.610Z,35.90
2022-08-07T06:10:05.232Z,35.60
2022-08-07T06:11:08.632Z,35.70
2022-08-07T06:12:12.499Z,35.80
2022-08-07T06:13:18.284Z,35.90
2022-08-07T06:14:28.641Z,35.90
2022-08-07T06:15:42.297Z,36.00
2022-08-07T06:16:55.792Z,36.20
2022-08-07T06:18:03.991Z,35.80
2022-08-07T06:19:06.943Z,35.70
2022-08-07T06:20:12.534Z,35.90
2022-08-07T06:22:15.683Z,36.10
2022-08-07T06:23:04.136Z,36.00
2022-08-07T06:24:52.302Z,35.80
2022-08-07T06:25:40.700Z,35.90
2022-08-07T06:26:57.821Z,35.90
2022-08-07T06:28:04.685Z,35.90
2022-08-07T06:29:08.542Z,36.00
2022-08-07T06:30:24.360Z,36.10
2022-08-07T06:31:47.043Z,36.20
2022-08-07T06:32:53.872Z,35.90
2022-08-07T06:33:56.421Z,36.10
2022-08-07T06:34:59.875Z,36.20
2022-08-07T06:36:13.025Z,36.10
2022-08-07T06:37:43.586Z,36.10
2022-08-07T06:38:58.703Z,36.20
2022-08-07T06:40:17.474Z,36.20
2022-08-07T06:42:02.477Z,36.50
2022-08-07T06:42:49.769Z,36.30
2022-08-07T06:44:10.735Z,36.10
2022-08-07T06:45:18.201Z,36.40
2022-08-07T06:46:35.069Z,36.50
2022-08-07T06:47:48.184Z,36.60
2022-08-07T06:49:04.314Z,36.60
2022-08-07T06:50:08.585Z,36.60
2022-08-07T06:51:31.341Z,36.60
2022-08-07T06:52:39.412Z,36.50
2022-08-07T06:55:30.202Z,36.40
2022-08-07T06:55:32.466Z,36.50
2022-08-07T06:56:48.561Z,36.60
2022-08-07T06:58:01.458Z,36.50
2022-08-07T07:00:12.995Z,36.70
2022-08-07T07:00:42.395Z,36.60
2022-08-07T07:01:50.994Z,36.60
2022-08-07T07:03:01.132Z,36.70
2022-08-07T07:04:28.091Z,36.70
2022-08-07T07:06:05.016Z,36.70
2022-08-07T07:07:01.034Z,36.70
2022-08-07T07:08:07.388Z,36.70
2022-08-07T07:09:30.839Z,36.80
2022-08-07T07:10:34.731Z,36.80
2022-08-07T07:12:08.415Z,36.80
2022-08-07T07:13:43.519Z,36.80
2022-08-07T07:14:49.381Z,36.90
2022-08-07T07:15:57.505Z,37.00
2022-08-07T07:17:04.668Z,36.90
2022-08-07T07:18:14.277Z,37.00
2022-08-07T07:19:55.546Z,36.90
2022-08-07T07:21:13.280Z,36.80
2022-08-07T07:22:36.364Z,36.80
2022-08-07T07:24:06.106Z,36.90
2022-08-07T07:25:14.118Z,37.00
2022-08-07T07:26:35.581Z,36.90
2022-08-07T07:27:56.157Z,37.00
2022-08-07T07:29:38.512Z,37.00
2022-08-07T07:30:38.533Z,37.00
2022-08-07T07:31:46.811Z,37.10
2022-08-07T07:32:50.324Z,37.10
2022-08-07T07:33:57.139Z,37.10
2022-08-07T07:35:00.355Z,37.10
2022-08-07T07:36:13.428Z,37.20
2022-08-07T07:37:45.480Z,37.20
2022-08-07T07:38:43.378Z,37.20
2022-08-07T07:39:54.679Z,37.30
2022-08-07T07:41:02.094Z,37.20
2022-08-07T07:42:13.547Z,37.30
2022-08-07T07:43:27.647Z,37.40
2022-08-07T07:44:45.494Z,37.30
2022-08-07T07:46:36.710Z,37.30
2022-08-07T07:47:22.954Z,37.60
2022-08-07T07:48:35.857Z,37.60
2022-08-07T07:50:31.436Z,37.50
2022-08-07T07:51:02.038Z,37.40
2022-08-07T07:52:05.715Z,37.60
2022-08-07T07:53:20.241Z,37.50
2022-08-07T07:54:26.573Z,37.30
2022-08-07T07:55:37.576Z,37.10
2022-08-07T07:56:48.649Z,37.50
2022-08-07T07:57:53.993Z,37.30
2022-08-07T07:59:01.985Z,37.30
2022-08-07T08:00:04.796Z,37.50
2022-08-07T08:02:02.512Z,37.10
2022-08-07T08:02:38.305Z,37.40
2022-08-07T08:04:11.127Z,37.20
2022-08-07T08:05:16.240Z,37.40
2022-08-07T08:06:19.326Z,37.40
2022-08-07T08:07:24.329Z,37.50
2022-08-07T08:08:41.959Z,37.80
2022-08-07T08:09:52.518Z,38.20
2022-08-07T08:11:07.995Z,37.60
2022-08-07T08:12:11.284Z,37.80
2022-08-07T08:13:15.558Z,37.70
2022-08-07T08:14:22.805Z,37.60
2022-08-07T08:15:29.490Z,37.70
2022-08-07T08:16:51.940Z,37.80
2022-08-07T08:17:57.635Z,38.00
2022-08-07T08:19:17.449Z,37.90
2022-08-07T08:20:31.776Z,37.90
2022-08-07T08:22:00.441Z,37.90
2022-08-07T08:23:28.503Z,37.90
2022-08-07T08:24:57.005Z,38.60
2022-08-07T08:26:27.457Z,38.60
2022-08-07T08:27:33.467Z,38.10
2022-08-07T08:28:43.339Z,38.30
2022-08-07T08:29:56.445Z,38.70
2022-08-07T08:31:00.564Z,38.40
2022-08-07T08:32:18.088Z,38.00
2022-08-07T08:33:23.004Z,38.00
2022-08-07T08:34:28.918Z,38.30
2022-08-07T08:35:39.575Z,38.30
2022-08-07T08:36:58.081Z,38.20
2022-08-07T08:38:03.496Z,38.00
2022-08-07T08:39:08.843Z,38.10
2022-08-07T08:40:23.503Z,38.20
2022-08-07T08:41:58.356Z,38.10
2022-08-07T08:43:12.511Z,38.20
2022-08-07T08:44:29.323Z,38.10
2022-08-07T08:45:59.238Z,38.30
2022-08-07T08:47:10.026Z,38.30
2022-08-07T08:48:28.469Z,38.40
2022-08-07T08:49:46.846Z,38.40
2022-08-07T08:51:14.717Z,38.50
2022-08-07T08:52:35.965Z,38.40
2022-08-07T08:53:45.818Z,38.40
2022-08-07T08:54:56.151Z,38.50
2022-08-07T08:56:24.493Z,38.50
2022-08-07T08:57:59.396Z,38.30
2022-08-07T08:59:02.335Z,38.30
2022-08-07T09:00:09.702Z,38.20
2022-08-07T09:01:21.711Z,38.40
2022-08-07T09:02:36.697Z,38.40
2022-08-07T09:03:55.627Z,38.20
2022-08-07T09:05:05.001Z,38.30
2022-08-07T09:06:16.670Z,38.40
2022-08-07T09:07:46.316Z,38.40
2022-08-07T09:08:57.935Z,38.40
2022-08-07T09:10:06.235Z,38.30
2022-08-07T09:11:11.195Z,38.30
2022-08-07T09:12:34.961Z,38.20
2022-08-07T09:13:46.182Z,38.10
2022-08-07T09:14:58.841Z,38.00
2022-08-07T09:16:30.550Z,38.10
2022-08-07T09:17:58.888Z,37.90
2022-08-07T09:19:51.000Z,38.00
2022-08-07T09:20:57.828Z,37.80
2022-08-07T09:24:27.167Z,37.90
2022-08-07T09:24:53.976Z,37.80
2022-08-07T09:25:14.457Z,37.80
2022-08-07T09:26:29.868Z,38.00
2022-08-07T09:28:00.016Z,38.10
2022-08-07T09:30:05.111Z,37.80
2022-08-07T09:30:54.674Z,37.90
2022-08-07T09:32:21.651Z,37.90
2022-08-07T09:33:57.334Z,37.90
2022-08-07T09:35:04.449Z,37.80
2022-08-07T09:36:35.875Z,37.70
2022-08-07T09:37:53.489Z,37.70
2022-08-07T09:38:59.383Z,37.80
2022-08-07T09:40:24.486Z,37.90
2022-08-07T09:41:36.437Z,37.90
2022-08-07T09:43:04.891Z,37.80
2022-08-07T09:44:46.605Z,37.80
2022-08-07T09:47:51.687Z,37.90
2022-08-07T09:47:59.632Z,37.90
2022-08-07T09:50:02.809Z,37.90
2022-08-07T09:50:51.400Z,37.90
2022-08-07T09:52:34.491Z,37.80
2022-08-07T09:53:41.363Z,37.80
2022-08-07T09:54:50.264Z,37.60
2022-08-07T09:56:04.397Z,36.40
2022-08-07T09:57:25.431Z,35.80
2022-08-07T09:58:38.376Z,36.40
2022-08-07T10:00:01.270Z,36.10
2022-08-07T10:01:50.970Z,36.30
2022-08-07T10:02:38.002Z,36.50
2022-08-07T10:04:14.473Z,36.70
2022-08-07T10:05:59.026Z,36.70
2022-08-07T10:06:55.479Z,36.10
2022-08-07T10:08:04.057Z,36.70
2022-08-07T10:09:42.777Z,36.50
2022-08-07T10:11:16.820Z,36.60
2022-08-07T10:12:41.952Z,37.00
2022-08-07T10:14:07.352Z,36.60
2022-08-07T10:15:15.501Z,36.60
2022-08-07T10:16:24.466Z,36.70
2022-08-07T10:17:29.892Z,36.60
2022-08-07T10:18:59.400Z,36.80
2022-08-07T10:20:21.951Z,36.80
2022-08-07T10:22:16.281Z,36.70
2022-08-07T10:24:05.620Z,36.60
2022-08-07T10:25:04.215Z,36.60
2022-08-07T10:26:24.847Z,36.80
2022-08-07T10:27:53.455Z,36.70
2022-08-07T10:28:58.450Z,36.80
2022-08-07T10:30:00.989Z,36.80
2022-08-07T10:31:22.737Z,36.80
2022-08-07T10:32:51.530Z,36.70
2022-08-07T10:34:06.218Z,36.70
2022-08-07T10:35:20.553Z,36.60
2022-08-07T10:36:36.340Z,36.50
2022-08-07T10:38:00.963Z,36.60
2022-08-07T10:39:20.209Z,36.90
2022-08-07T10:40:31.055Z,36.70
2022-08-07T10:41:51.838Z,36.40
2022-08-07T10:43:10.123Z,36.50
2022-08-07T10:44:19.541Z,36.60
2022-08-07T10:45:57.491Z,37.00
2022-08-07T10:47:00.223Z,36.50
2022-08-07T10:48:09.746Z,36.30
2022-08-07T10:49:24.556Z,36.30
2022-08-07T10:50:49.989Z,35.90
2022-08-07T10:52:13.818Z,35.80
2022-08-07T10:53:43.988Z,36.00
2022-08-07T10:55:01.907Z,35.80
2022-08-07T10:56:49.201Z,35.70
2022-08-07T10:58:00.552Z,34.70
2022-08-07T10:59:10.261Z,35.60
2022-08-07T11:00:36.901Z,35.40
2022-08-07T11:02:05.500Z,35.70
2022-08-07T11:03:28.028Z,35.30
2022-08-07T11:04:46.314Z,35.30
2022-08-07T11:05:58.484Z,35.20
2022-08-07T11:07:03.484Z,34.50
2022-08-07T11:08:36.583Z,33.70
2022-08-07T11:10:07.408Z,35.10
2022-08-07T11:11:13.939Z,35.40
2022-08-07T11:12:19.002Z,35.40
2022-08-07T11:14:46.518Z,35.00
2022-08-07T11:15:02.548Z,35.20
2022-08-07T11:16:30.749Z,35.10
2022-08-07T11:17:43.354Z,34.80
2022-08-07T11:18:58.498Z,35.30
2022-08-07T11:20:15.856Z,35.20
2022-08-07T11:21:19.175Z,35.20
2022-08-07T11:22:38.270Z,35.20
2022-08-07T11:24:08.502Z,35.30
2022-08-07T11:25:20.745Z,35.20
2022-08-07T11:26:28.206Z,35.30
2022-08-07T11:28:01.349Z,35.00
2022-08-07T11:29:13.099Z,35.10
2022-08-07T11:30:48.547Z,34.60
2022-08-07T11:32:05.093Z,35.40
2022-08-07T11:33:17.074Z,35.30
2022-08-07T11:34:19.533Z,35.30
2022-08-07T11:35:29.322Z,35.10
2022-08-07T11:36:39.278Z,34.80
2022-08-07T11:37:58.364Z,33.20
2022-08-07T11:39:09.797Z,34.60
2022-08-07T11:40:23.026Z,33.60
2022-08-07T11:42:01.714Z,33.60
2022-08-07T11:43:01.809Z,33.10
2022-08-07T11:44:23.526Z,33.80
2022-08-07T11:45:35.894Z,34.30
2022-08-07T11:46:46.963Z,34.40
2022-08-07T11:47:58.813Z,34.50
2022-08-07T11:49:50.804Z,33.10
2022-08-07T11:50:57.832Z,34.30
2022-08-07T11:52:19.079Z,34.20
2022-08-07T11:53:33.754Z,34.60
2022-08-07T11:54:54.602Z,34.50
2022-08-07T11:56:15.754Z,34.20
2022-08-07T11:57:20.557Z,34.40
2022-08-07T11:58:42.770Z,34.40
2022-08-07T12:00:10.853Z,34.40
2022-08-07T12:01:59.571Z,34.70
2022-08-07T12:03:00.446Z,34.70
2022-08-07T12:04:13.062Z,35.00
2022-08-07T12:05:41.283Z,34.90
2022-08-07T12:07:00.561Z,35.10
2022-08-07T12:08:11.391Z,35.00
2022-08-07T12:09:35.929Z,34.90
2022-08-07T12:10:41.943Z,35.10
2022-08-07T12:12:09.576Z,35.20
2022-08-07T12:13:36.660Z,35.50
2022-08-07T12:14:56.221Z,35.20
2022-08-07T12:16:09.008Z,35.50
2022-08-07T12:17:19.917Z,35.50
2022-08-07T12:18:34.998Z,35.40
2022-08-07T12:20:03.322Z,35.50
2022-08-07T12:21:08.504Z,34.90
2022-08-07T12:22:38.035Z,35.40
2022-08-07T12:24:07.345Z,35.20
2022-08-07T12:26:22.201Z,35.40
2022-08-07T12:27:03.319Z,35.50
2022-08-07T12:28:44.760Z,35.70
2022-08-07T12:30:13.673Z,35.60
2022-08-07T12:31:24.541Z,35.80
2022-08-07T12:32:45.285Z,35.70
2022-08-07T12:34:01.305Z,36.10
2022-08-07T12:35:08.337Z,35.40
2022-08-07T12:36:11.376Z,35.50
2022-08-07T12:37:23.454Z,35.50
2022-08-07T12:38:42.553Z,35.80
2022-08-07T12:39:50.625Z,35.60
2022-08-07T12:40:54.256Z,35.70
2022-08-07T12:41:58.529Z,35.60
2022-08-07T12:43:03.021Z,35.70
2022-08-07T12:44:17.320Z,35.80
2022-08-07T12:45:21.616Z,35.70
2022-08-07T12:46:32.677Z,35.80
2022-08-07T12:47:56.242Z,35.90
2022-08-07T12:49:39.523Z,35.90
2022-08-07T12:50:49.454Z,35.50
2022-08-07T12:52:12.235Z,35.60
2022-08-07T12:53:18.634Z,35.40
2022-08-07T12:54:38.632Z,35.70
2022-08-07T12:56:04.239Z,35.40
2022-08-07T12:57:12.389Z,35.30
2022-08-07T12:58:28.210Z,35.50
2022-08-07T12:59:54.920Z,35.40
2022-08-07T13:01:13.121Z,35.30
2022-08-07T13:02:35.021Z,35.30
2022-08-07T13:04:03.144Z,35.30
2022-08-07T13:05:14.852Z,35.20
2022-08-07T13:06:29.429Z,35.50
2022-08-07T13:08:14.392Z,35.40
2022-08-07T13:09:12.478Z,35.50
2022-08-07T13:10:51.530Z,35.50
2022-08-07T13:12:15.162Z,35.40
2022-08-07T13:13:47.326Z,35.30
2022-08-07T13:15:01.743Z,35.10
2022-08-07T13:16:16.921Z,35.20
2022-08-07T13:17:41.006Z,35.60
2022-08-07T13:19:02.612Z,35.70
2022-08-07T13:20:07.809Z,35.60
2022-08-07T13:21:37.265Z,35.60
2022-08-07T13:22:52.503Z,35.30
2022-08-07T13:24:04.508Z,35.20
2022-08-07T13:25:28.930Z,35.20
2022-08-07T13:26:55.310Z,35.20
2022-08-07T13:28:12.575Z,35.40
2022-08-07T13:29:34.641Z,35.30
2022-08-07T13:30:40.500Z,35.40
2022-08-07T13:31:57.237Z,35.10
2022-08-07T13:33:06.333Z,35.20
2022-08-07T13:34:44.710Z,35.30
2022-08-07T13:36:00.704Z,34.80
2022-08-07T13:37:20.335Z,34.60
2022-08-07T13:38:41.979Z,34.60
2022-08-07T13:40:35.914Z,34.90
2022-08-07T13:41:30.241Z,35.00
2022-08-07T13:42:39.729Z,34.90
2022-08-07T13:43:52.679Z,35.00
2022-08-07T13:46:07.282Z,35.10
2022-08-07T13:46:28.876Z,34.90
2022-08-07T13:48:07.706Z,35.00
2022-08-07T13:49:00.860Z,34.80
2022-08-07T13:50:34.182Z,34.90
2022-08-07T13:51:28.058Z,34.90
2022-08-07T13:52:49.475Z,35.10
2022-08-07T13:54:03.063Z,34.70
2022-08-07T13:55:07.071Z,35.00
2022-08-07T13:56:09.841Z,34.60
2022-08-07T13:57:24.261Z,35.10
2022-08-07T13:58:56.093Z,35.00
2022-08-07T14:00:01.997Z,34.80
2022-08-07T14:01:16.570Z,34.70
2022-08-07T14:02:29.750Z,34.70
2022-08-07T14:04:09.589Z,34.90
2022-08-07T14:05:07.526Z,34.70
2022-08-07T14:06:12.103Z,34.70
2022-08-07T14:07:14.840Z,34.70
2022-08-07T14:08:20.237Z,34.90
2022-08-07T14:10:01.344Z,34.70
2022-08-07T14:11:14.979Z,34.70
2022-08-07T14:12:27.647Z,34.50
2022-08-07T14:13:33.433Z,35.30
2022-08-07T14:14:41.898Z,34.90
2022-08-07T14:15:51.652Z,34.90
2022-08-07T14:16:57.180Z,34.50
2022-08-07T14:18:23.832Z,34.80
2022-08-07T14:20:42.554Z,34.50
2022-08-07T14:21:21.092Z,34.50
2022-08-07T14:22:34.111Z,34.50
2022-08-07T14:24:00.369Z,34.50
2022-08-07T14:25:03.419Z,34.30
2022-08-07T14:26:10.598Z,34.50
2022-08-07T14:28:21.086Z,34.00
2022-08-07T14:31:56.498Z,33.90
2022-08-07T14:33:04.429Z,34.00
2022-08-07T14:34:07.694Z,34.00
2022-08-07T14:35:45.124Z,33.70
2022-08-07T14:36:40.431Z,34.20
2022-08-07T14:38:05.448Z,34.10
2022-08-07T14:39:08.644Z,33.60
2022-08-07T14:40:27.108Z,33.80
2022-08-07T14:42:19.779Z,34.00
2022-08-07T14:44:22.872Z,33.80
2022-08-07T14:45:48.997Z,33.60
2022-08-07T14:47:08.738Z,33.80
2022-08-07T14:48:19.829Z,33.60
2022-08-07T14:50:53.984Z,33.70
2022-08-07T14:54:45.613Z,34.20
2022-08-07T14:55:56.221Z,33.70
2022-08-07T14:58:29.202Z,34.20
2022-08-07T15:00:05.404Z,34.60
2022-08-07T15:00:59.430Z,34.80
2022-08-07T15:03:51.388Z,35.00
2022-08-07T15:04:55.251Z,35.10
2022-08-07T15:06:03.732Z,35.20
2022-08-07T15:07:17.617Z,35.10
2022-08-07T15:08:32.370Z,34.90
2022-08-07T15:09:59.210Z,35.00
2022-08-07T15:11:10.056Z,35.00
2022-08-07T15:12:25.642Z,34.70
2022-08-07T15:13:35.901Z,34.70
2022-08-07T15:14:56.137Z,34.90
2022-08-07T15:16:03.396Z,34.50
2022-08-07T15:17:16.785Z,34.90
2022-08-07T15:18:33.805Z,34.70
2022-08-07T15:21:08.177Z,34.50
2022-08-07T15:22:33.554Z,34.60
2022-08-07T15:25:14.313Z,34.70
2022-08-07T15:25:18.679Z,34.60
2022-08-07T15:26:28.643Z,34.70
2022-08-07T15:27:34.341Z,34.70
2022-08-07T15:30:16.465Z,34.40
2022-08-07T15:32:00.846Z,34.40
2022-08-07T15:34:15.077Z,34.60
2022-08-07T15:36:01.228Z,34.60
2022-08-07T15:37:03.802Z,34.60
2022-08-07T15:39:52.098Z,34.50
2022-08-07T15:42:43.602Z,34.30
2022-08-07T15:44:09.633Z,34.00
2022-08-07T15:45:13.836Z,33.90
2022-08-07T15:46:31.234Z,34.00
2022-08-07T15:48:01.330Z,33.80
2022-08-07T15:49:14.291Z,33.80
2022-08-07T15:50:37.898Z,34.10
2022-08-07T15:53:05.460Z,33.60
2022-08-07T15:54:11.950Z,33.60
2022-08-07T15:55:18.072Z,33.80
2022-08-07T15:56:29.680Z,33.90
2022-08-07T15:57:47.866Z,34.00
2022-08-07T15:58:58.821Z,33.90
2022-08-07T16:00:04.397Z,33.60
2022-08-07T16:01:13.605Z,33.70
2022-08-07T16:02:26.758Z,33.80
2022-08-07T16:03:47.136Z,34.00
2022-08-07T16:04:52.905Z,34.00
2022-08-07T16:05:55.733Z,34.00
2022-08-07T16:07:04.574Z,33.90
2022-08-07T16:08:30.579Z,33.80
2022-08-07T16:09:41.113Z,34.10
2022-08-07T16:10:54.401Z,33.90
2022-08-07T16:12:15.425Z,34.00
2022-08-07T16:13:59.101Z,34.10
2022-08-07T16:15:06.251Z,34.30
2022-08-07T16:16:48.784Z,34.40
2022-08-07T16:18:04.044Z,34.50
2022-08-07T16:19:09.633Z,34.30
2022-08-07T16:20:33.329Z,34.30
2022-08-07T16:22:03.572Z,34.60
2022-08-07T16:23:25.149Z,34.60
2022-08-07T16:25:06.276Z,34.40